Time;durP1;ratioP1;P1;durP2;ratioP2;P2;SDS_P1;SDS_P2;PMS_P1;PMS_P2;Temp;Humidity;BMP_temperature;BMP_pressure;BME280_temperature;BME280_humidity;BME280_pressure;Samples;Min_cycle;Max_cycle;Signal;HPM_P1;HPM_P2
2021/07/09 00:02:05;;;;;;;8.03;6.60;;;20.00;99.90;;;;;;5104361;28;20491;-67
2021/07/09 00:04:33;;;;;;;7.30;5.80;;;20.00;99.90;;;;;;5104215;28;20449;-67
2021/07/09 00:07:00;;;;;;;6.40;5.80;;;20.00;99.90;;;;;;5104228;28;20771;-66
2021/07/09 00:09:27;;;;;;;6.73;6.00;;;20.20;99.90;;;;;;5085963;28;20420;-66
2021/07/09 00:11:55;;;;;;;8.03;6.17;;;20.00;99.90;;;;;;5104430;28;20394;-66
2021/07/09 00:14:28;;;;;;;5.97;5.40;;;20.00;99.90;;;;;;5103982;28;20405;-66
2021/07/09 00:16:55;;;;;;;8.60;6.33;;;20.00;99.90;;;;;;5103697;28;20448;-66
2021/07/09 00:19:23;;;;;;;7.20;5.27;;;19.90;99.90;;;;;;5103752;28;20524;-65
2021/07/09 00:21:50;;;;;;;5.67;4.97;;;19.90;99.90;;;;;;5104120;28;20446;-65
2021/07/09 00:24:18;;;;;;;6.20;5.60;;;19.90;99.90;;;;;;5085968;28;20441;-65
2021/07/09 00:26:45;;;;;;;7.13;5.10;;;19.90;99.90;;;;;;5104094;28;20568;-65
2021/07/09 00:29:12;;;;;;;5.97;5.20;;;20.20;99.90;;;;;;5103944;28;20422;-65
2021/07/09 00:31:39;;;;;;;6.67;5.27;;;20.10;99.90;;;;;;5103262;28;20419;-65
2021/07/09 00:34:07;;;;;;;5.83;5.23;;;20.00;99.90;;;;;;5103792;28;20441;-65
2021/07/09 00:36:35;;;;;;;8.10;5.87;;;20.00;99.90;;;;;;5103501;28;20652;-65
2021/07/09 00:39:05;;;;;;;5.47;4.70;;;20.10;99.90;;;;;;5089444;28;20477;-65
2021/07/09 00:41:32;;;;;;;6.83;5.73;;;19.80;99.90;;;;;;5103540;28;20450;-65
2021/07/09 00:43:59;;;;;;;10.30;6.23;;;20.00;99.90;;;;;;5104026;28;20430;-65
2021/07/09 00:46:38;;;;;;;6.00;5.33;;;20.00;99.90;;;;;;5103338;28;20446;-65
2021/07/09 00:49:08;;;;;;;7.20;6.33;;;20.00;99.90;;;;;;5103325;28;20469;-64
2021/07/09 00:51:35;;;;;;;6.17;5.57;;;19.70;99.90;;;;;;5103344;28;20772;-64
2021/07/09 00:54:03;;;;;;;8.23;6.23;;;20.00;99.90;;;;;;5103396;28;20413;-65
2021/07/09 00:56:31;;;;;;;7.70;6.57;;;20.20;99.90;;;;;;5103506;28;20448;-65
2021/07/09 00:59:00;;;;;;;6.50;5.80;;;20.50;99.90;;;;;;5103160;28;20456;-65
2021/07/09 01:01:27;;;;;;;9.30;6.27;;;20.20;99.90;;;;;;5102846;28;20446;-65
2021/07/09 01:03:54;;;;;;;7.80;6.90;;;20.30;99.90;;;;;;5103162;28;20466;-65
2021/07/09 01:06:22;;;;;;;7.13;6.43;;;20.30;99.90;;;;;;5103368;28;20480;-65
2021/07/09 01:08:49;;;;;;;6.17;5.27;;;20.40;99.90;;;;;;5103274;28;20467;-65
2021/07/09 01:11:20;;;;;;;6.43;5.77;;;20.50;99.90;;;;;;5102840;28;20470;-65
2021/07/09 01:13:47;;;;;;;5.77;5.03;;;20.50;99.90;;;;;;5103398;28;20501;-65
2021/07/09 01:16:15;;;;;;;7.07;5.17;;;20.60;99.90;;;;;;5102597;28;20800;-65
2021/07/09 01:18:42;;;;;;;5.87;5.37;;;20.50;99.90;;;;;;5103109;28;20485;-66
2021/07/09 01:21:09;;;;;;;5.33;4.63;;;20.40;99.90;;;;;;5103237;28;20463;-63
2021/07/09 01:23:38;;;;;;;5.10;4.60;;;19.90;99.90;;;;;;5084692;28;20488;-65
2021/07/09 01:26:08;;;;;;;4.27;3.90;;;19.60;99.90;;;;;;5102835;28;20446;-65
2021/07/09 01:28:37;;;;;;;5.10;4.60;;;19.50;99.90;;;;;;5102845;28;20446;-64
2021/07/09 01:31:09;;;;;;;5.20;4.40;;;19.50;99.90;;;;;;5102832;28;20642;-65
2021/07/09 01:33:37;;;;;;;4.37;3.97;;;19.50;99.90;;;;;;5102369;28;20667;-65
2021/07/09 01:36:05;;;;;;;6.70;4.50;;;19.50;99.90;;;;;;5102956;28;20446;-65
2021/07/09 01:38:33;;;;;;;5.60;5.13;;;19.60;99.90;;;;;;5102430;28;20445;-66
2021/07/09 01:41:00;;;;;;;5.50;4.83;;;19.60;99.90;;;;;;5102865;28;20443;-64
2021/07/09 01:43:27;;;;;;;5.00;4.40;;;19.60;99.90;;;;;;5102279;28;20428;-64
2021/07/09 01:45:54;;;;;;;5.87;4.80;;;19.60;99.90;;;;;;5102469;28;20589;-65
2021/07/09 01:48:22;;;;;;;4.67;4.30;;;19.60;99.90;;;;;;5102138;28;20451;-64
2021/07/09 01:50:49;;;;;;;6.83;4.87;;;20.00;99.90;;;;;;5102474;28;20445;-64
2021/07/09 01:53:16;;;;;;;5.03;4.00;;;20.10;99.90;;;;;;5101987;28;20482;-65
2021/07/09 01:55:43;;;;;;;5.70;5.20;;;20.30;99.90;;;;;;5102075;28;21021;-65
2021/07/09 01:58:10;;;;;;;5.50;5.00;;;20.10;99.90;;;;;;5102403;28;20473;-64
2021/07/09 02:00:37;;;;;;;5.10;4.60;;;20.00;99.90;;;;;;5102161;28;20467;-64
2021/07/09 02:03:04;;;;;;;7.27;4.90;;;20.10;99.90;;;;;;5102117;28;20416;-65
2021/07/09 02:05:32;;;;;;;6.93;3.60;;;20.10;99.90;;;;;;5101649;28;20442;-65
2021/07/09 02:07:59;;;;;;;5.50;5.00;;;19.90;99.90;;;;;;5101693;28;20465;-64
2021/07/09 02:10:31;;;;;;;5.30;4.80;;;19.90;99.90;;;;;;5101468;28;20453;-65
2021/07/09 02:13:00;;;;;;;7.47;5.43;;;19.80;99.90;;;;;;5101372;28;20433;-63
2021/07/09 02:15:35;;;;;;;6.00;5.47;;;20.10;99.90;;;;;;5101692;28;20438;-64
2021/07/09 02:18:04;;;;;;;6.20;5.10;;;20.10;99.90;;;;;;5101712;28;20858;-64
2021/07/09 02:20:33;;;;;;;7.73;5.27;;;20.00;99.90;;;;;;5101221;28;20428;-64
2021/07/09 02:23:03;;;;;;;7.63;5.40;;;19.80;99.90;;;;;;5101855;28;20462;-64
2021/07/09 02:25:30;;;;;;;6.80;5.20;;;19.60;99.90;;;;;;5101322;28;20508;-64
2021/07/09 02:27:57;;;;;;;6.80;5.70;;;19.60;99.90;;;;;;5101328;28;20619;-65
2021/07/09 02:30:26;;;;;;;5.27;4.87;;;19.60;99.90;;;;;;5101563;28;20413;-65
2021/07/09 02:32:53;;;;;;;6.40;5.30;;;19.60;99.90;;;;;;5101256;28;20450;-64
2021/07/09 02:35:24;;;;;;;6.33;5.80;;;19.50;99.90;;;;;;5101227;28;20581;-65
2021/07/09 02:37:51;;;;;;;5.73;5.17;;;19.50;99.90;;;;;;5101203;28;20731;-64
2021/07/09 02:40:22;;;;;;;6.97;6.37;;;19.60;99.90;;;;;;5100820;28;20413;-63
2021/07/09 02:42:52;;;;;;;5.90;5.27;;;19.70;99.90;;;;;;5101427;28;20480;-65
2021/07/09 02:45:21;;;;;;;7.20;5.70;;;19.70;99.90;;;;;;5101146;28;20437;-64
2021/07/09 02:47:50;;;;;;;9.07;6.20;;;19.80;99.90;;;;;;5102990;28;20423;-64
2021/07/09 02:50:20;;;;;;;9.30;6.30;;;19.70;99.90;;;;;;5121541;28;20412;-65
2021/07/09 02:52:47;;;;;;;7.80;7.10;;;19.90;99.90;;;;;;5121817;28;20629;-65
2021/07/09 02:55:15;;;;;;;9.87;7.77;;;19.80;99.90;;;;;;5121533;28;20486;-64
2021/07/09 02:57:43;;;;;;;9.87;7.60;;;19.70;99.90;;;;;;5121544;28;20424;-64
2021/07/09 03:00:15;;;;;;;8.83;6.70;;;19.60;99.90;;;;;;5121405;28;20808;-64
2021/07/09 03:02:43;;;;;;;9.60;6.80;;;19.60;99.90;;;;;;5121129;28;20453;-64
2021/07/09 03:05:11;;;;;;;7.33;6.40;;;19.90;99.90;;;;;;5121340;28;20416;-64
2021/07/09 03:07:39;;;;;;;9.17;7.47;;;20.30;99.90;;;;;;5121116;28;20468;-64
2021/07/09 03:10:08;;;;;;;7.80;7.00;;;20.60;99.90;;;;;;5121184;28;20656;-64
2021/07/09 03:12:37;;;;;;;8.53;7.67;;;20.90;99.90;;;;;;5120675;28;20416;-64
2021/07/09 03:15:07;;;;;;;8.67;6.83;;;20.80;99.90;;;;;;5121499;28;20420;-64
2021/07/09 03:17:34;;;;;;;8.70;6.67;;;20.90;99.90;;;;;;5103312;28;20847;-65
2021/07/09 03:20:04;;;;;;;10.10;8.13;;;20.60;99.90;;;;;;5120982;28;20456;-65
2021/07/09 03:22:31;;;;;;;8.10;6.17;;;20.60;99.90;;;;;;5121217;28;20415;-65
2021/07/09 03:24:58;;;;;;;11.10;8.00;;;20.90;99.90;;;;;;5101868;28;20413;-65
2021/07/09 03:27:25;;;;;;;9.50;8.00;;;21.00;99.90;;;;;;5100387;28;20480;-66
2021/07/09 03:29:52;;;;;;;7.63;6.87;;;20.80;99.90;;;;;;5100716;28;20483;-67
2021/07/09 03:32:19;;;;;;;9.57;8.40;;;20.60;99.90;;;;;;5100279;28;20446;-65
2021/07/09 03:34:46;;;;;;;12.33;9.73;;;20.40;99.90;;;;;;5100731;28;20409;-64
2021/07/09 03:37:13;;;;;;;14.40;9.97;;;20.30;99.90;;;;;;5100315;28;20417;-64
2021/07/09 03:39:40;;;;;;;31.73;14.13;;;20.20;99.90;;;;;;5100241;28;20486;-64
2021/07/09 03:42:07;;;;;;;21.57;13.10;;;20.20;99.90;;;;;;5100466;28;20417;-64
2021/07/09 03:44:34;;;;;;;18.70;13.53;;;20.10;99.90;;;;;;5100211;28;20466;-62
2021/07/09 03:47:01;;;;;;;15.37;10.93;;;20.10;99.90;;;;;;5100241;28;20462;-63
2021/07/09 03:49:29;;;;;;;16.40;9.80;;;19.90;99.90;;;;;;5100413;28;20435;-64
2021/07/09 03:51:56;;;;;;;12.50;9.67;;;19.90;99.90;;;;;;5100300;28;20421;-65
2021/07/09 03:54:23;;;;;;;12.43;9.93;;;19.80;99.90;;;;;;5099934;28;20624;-64
2021/07/09 03:56:50;;;;;;;13.00;9.33;;;19.70;99.90;;;;;;5100489;28;20453;-65
2021/07/09 03:59:17;;;;;;;10.93;8.17;;;19.80;99.90;;;;;;5100296;28;20531;-66
2021/07/09 04:01:44;;;;;;;9.80;7.97;;;19.80;99.90;;;;;;5100118;28;20421;-67
2021/07/09 04:04:12;;;;;;;9.20;6.80;;;19.70;99.90;;;;;;5100228;28;20489;-63
2021/07/09 04:06:39;;;;;;;8.20;5.73;;;19.60;99.90;;;;;;5099760;28;20446;-65
2021/07/09 04:09:06;;;;;;;7.87;5.60;;;19.40;99.90;;;;;;5099975;28;20413;-64
2021/07/09 04:11:33;;;;;;;11.90;5.23;;;19.30;99.90;;;;;;5113890;28;20693;-66
2021/07/09 04:14:00;;;;;;;6.57;4.40;;;19.10;99.90;;;;;;5100005;28;20454;-65
2021/07/09 04:16:27;;;;;;;4.33;3.70;;;19.10;99.90;;;;;;5099646;28;20442;-64
2021/07/09 04:18:54;;;;;;;7.17;3.87;;;19.00;99.90;;;;;;5100035;28;20448;-64
2021/07/09 04:21:21;;;;;;;3.20;2.90;;;18.90;99.90;;;;;;5099810;28;20780;-64
2021/07/09 04:23:48;;;;;;;3.97;3.63;;;18.90;99.90;;;;;;5099726;28;20471;-65
2021/07/09 04:26:15;;;;;;;3.47;3.17;;;18.80;99.90;;;;;;5099829;28;20412;-66
2021/07/09 04:28:42;;;;;;;4.50;4.10;;;18.80;99.90;;;;;;5099691;28;20465;-65
2021/07/09 04:31:09;;;;;;;4.50;3.47;;;18.80;99.90;;;;;;5100252;28;20444;-65
2021/07/09 04:33:36;;;;;;;3.03;2.40;;;18.80;99.90;;;;;;5099743;28;20486;-65
2021/07/09 04:36:04;;;;;;;3.23;2.90;;;18.80;99.90;;;;;;5102738;28;20420;-66
2021/07/09 04:38:31;;;;;;;2.60;2.40;;;18.70;99.90;;;;;;5108258;28;20485;-64
2021/07/09 04:40:58;;;;;;;5.73;3.00;;;18.70;99.90;;;;;;5103880;28;20428;-66
2021/07/09 04:43:25;;;;;;;2.47;2.27;;;18.60;99.90;;;;;;5103259;28;20435;-65
2021/07/09 04:45:52;;;;;;;3.17;2.97;;;18.60;99.90;;;;;;5103438;28;20408;-63
2021/07/09 04:48:19;;;;;;;3.73;3.40;;;18.60;99.90;;;;;;5103194;28;20482;-63
2021/07/09 04:50:46;;;;;;;3.70;3.40;;;18.60;99.90;;;;;;5102254;28;20462;-64
2021/07/09 04:53:13;;;;;;;4.17;3.77;;;18.60;99.90;;;;;;5103037;28;20816;-64
2021/07/09 04:55:40;;;;;;;4.37;3.97;;;18.60;99.90;;;;;;5103298;28;20437;-65
2021/07/09 04:58:07;;;;;;;6.47;3.47;;;18.60;99.90;;;;;;5103323;28;20445;-63
2021/07/09 05:00:34;;;;;;;3.80;3.40;;;18.50;99.90;;;;;;5102542;28;20719;-62
2021/07/09 05:03:01;;;;;;;4.03;3.73;;;18.50;99.90;;;;;;5102924;28;20449;-65
2021/07/09 05:05:28;;;;;;;4.13;3.70;;;18.50;99.90;;;;;;5102786;28;20416;-65
2021/07/09 05:07:55;;;;;;;8.23;4.70;;;18.50;99.90;;;;;;5102899;28;20900;-62
2021/07/09 05:10:23;;;;;;;5.90;3.60;;;18.50;99.90;;;;;;5102353;28;20440;-64
2021/07/09 05:12:52;;;;;;;5.10;3.37;;;18.50;99.90;;;;;;5102928;28;20472;-64
2021/07/09 05:15:19;;;;;;;4.30;3.90;;;18.60;99.90;;;;;;5102976;28;20475;-65
2021/07/09 05:17:46;;;;;;;3.93;3.60;;;18.60;99.90;;;;;;5102839;28;20425;-66
2021/07/09 05:20:13;;;;;;;3.07;2.77;;;18.60;99.90;;;;;;5102340;28;20475;-65
2021/07/09 05:22:41;;;;;;;4.83;3.10;;;18.60;99.90;;;;;;5102773;28;20742;-65
2021/07/09 05:25:09;;;;;;;2.73;2.50;;;18.50;99.90;;;;;;5102953;28;20458;-66
2021/07/09 05:27:36;;;;;;;3.27;3.07;;;18.50;99.90;;;;;;5102672;28;20474;-65
2021/07/09 05:30:05;;;;;;;5.60;3.20;;;18.50;99.90;;;;;;5102910;28;20630;-65
2021/07/09 05:32:33;;;;;;;3.13;2.83;;;18.50;99.90;;;;;;5102485;28;20434;-65
2021/07/09 05:35:05;;;;;;;3.17;2.57;;;18.50;99.90;;;;;;5102404;28;20417;-66
2021/07/09 05:37:32;;;;;;;2.80;2.23;;;18.60;99.90;;;;;;5102038;28;20498;-66
2021/07/09 05:40:00;;;;;;;3.23;2.90;;;18.60;99.90;;;;;;5102403;28;20456;-65
2021/07/09 05:42:26;;;;;;;3.10;2.80;;;18.70;99.90;;;;;;5102199;28;20424;-65
2021/07/09 05:44:54;;;;;;;3.40;2.40;;;18.80;99.90;;;;;;5102678;28;20442;-65
2021/07/09 05:47:21;;;;;;;3.40;2.60;;;18.60;99.90;;;;;;5100815;28;20451;-65
2021/07/09 05:49:48;;;;;;;2.93;2.63;;;18.70;99.90;;;;;;5119060;28;20449;-66
2021/07/09 05:52:15;;;;;;;3.07;2.87;;;18.80;99.90;;;;;;5122031;28;20436;-68
2021/07/09 05:54:42;;;;;;;2.97;2.77;;;18.90;99.90;;;;;;5114457;28;20420;-67
2021/07/09 05:57:09;;;;;;;3.67;3.37;;;19.20;99.90;;;;;;5101985;28;20412;-68
2021/07/09 05:59:37;;;;;;;2.30;2.20;;;19.30;99.90;;;;;;5101683;28;20448;-69
2021/07/09 06:02:05;;;;;;;3.10;2.80;;;19.00;99.90;;;;;;5101629;28;20745;-67
2021/07/09 06:04:32;;;;;;;3.07;2.73;;;19.10;99.90;;;;;;5101515;28;20445;-65
2021/07/09 06:06:59;;;;;;;3.40;3.00;;;18.90;99.90;;;;;;5101549;28;20414;-66
2021/07/09 06:09:26;;;;;;;2.60;2.40;;;18.70;99.90;;;;;;5101693;28;20775;-65
2021/07/09 06:11:53;;;;;;;2.47;2.27;;;18.60;99.90;;;;;;5101466;28;20801;-65
2021/07/09 06:14:20;;;;;;;2.90;2.60;;;18.60;99.90;;;;;;5108359;28;20432;-65
2021/07/09 06:16:47;;;;;;;2.20;2.10;;;18.60;99.90;;;;;;5113163;28;20409;-67
2021/07/09 06:19:15;;;;;;;1.93;1.73;;;18.50;99.90;;;;;;5101228;28;20460;-63
2021/07/09 06:21:42;;;;;;;2.73;2.53;;;18.60;99.90;;;;;;5101660;28;20402;-67
2021/07/09 06:24:10;;;;;;;2.43;2.23;;;18.60;99.90;;;;;;5101828;28;20770;-63
2021/07/09 06:26:37;;;;;;;2.33;2.13;;;18.80;99.90;;;;;;5101328;28;20473;-63
2021/07/09 06:29:04;;;;;;;2.60;2.40;;;19.00;99.90;;;;;;5112246;28;20446;-66
2021/07/09 06:31:31;;;;;;;2.70;2.50;;;19.40;99.90;;;;;;5116258;28;20775;-65
2021/07/09 06:33:58;;;;;;;3.10;2.80;;;19.70;99.90;;;;;;5101388;28;20445;-65
2021/07/09 06:36:25;;;;;;;3.60;2.67;;;19.50;99.90;;;;;;5101032;28;20409;-65
2021/07/09 06:38:52;;;;;;;3.97;2.90;;;19.70;99.90;;;;;;5101261;28;20420;-63
2021/07/09 06:41:19;;;;;;;3.47;3.17;;;19.80;99.90;;;;;;5100977;28;20417;-63
2021/07/09 06:43:46;;;;;;;4.47;4.03;;;20.00;99.90;;;;;;5106061;28;20415;-63
2021/07/09 06:46:13;;;;;;;5.90;4.40;;;19.70;99.90;;;;;;5109475;28;20756;-63
2021/07/09 06:48:41;;;;;;;4.20;3.50;;;19.80;99.90;;;;;;5101066;28;20454;-63
2021/07/09 06:51:08;;;;;;;3.57;3.27;;;19.70;99.90;;;;;;5101222;28;20449;-64
2021/07/09 06:53:35;;;;;;;3.43;3.23;;;19.60;99.90;;;;;;5100514;28;20446;-64
2021/07/09 06:56:02;;;;;;;3.17;2.80;;;19.50;99.90;;;;;;5106653;28;20420;-64
2021/07/09 06:58:29;;;;;;;4.97;3.20;;;19.70;99.90;;;;;;5100248;28;20525;-64
2021/07/09 07:00:57;;;;;;;3.80;3.50;;;19.70;99.90;;;;;;5101006;28;20463;-63
2021/07/09 07:03:25;;;;;;;3.87;3.30;;;19.60;99.90;;;;;;5100813;28;20416;-66
2021/07/09 07:05:52;;;;;;;3.67;3.30;;;19.30;99.90;;;;;;5101001;28;20675;-66
2021/07/09 07:08:26;;;;;;;3.67;3.33;;;19.10;99.90;;;;;;5104201;28;20468;-64
2021/07/09 07:10:56;;;;;;;4.80;4.40;;;19.00;99.90;;;;;;5121337;28;20464;-62
2021/07/09 07:13:24;;;;;;;5.43;4.93;;;19.10;99.90;;;;;;5120777;28;20799;-62
2021/07/09 07:15:51;;;;;;;4.77;4.37;;;19.10;99.90;;;;;;5121379;28;20423;-64
2021/07/09 07:18:19;;;;;;;5.57;4.80;;;19.00;99.90;;;;;;5120594;28;20415;-65
2021/07/09 07:20:47;;;;;;;4.43;3.97;;;18.80;99.90;;;;;;5120851;28;20459;-65
2021/07/09 07:23:16;;;;;;;5.60;4.20;;;18.80;99.90;;;;;;5116168;28;20514;-64
2021/07/09 07:25:45;;;;;;;4.67;4.27;;;19.00;99.90;;;;;;5101160;28;20420;-63
2021/07/09 07:28:16;;;;;;;6.60;5.00;;;19.20;99.90;;;;;;5112526;28;20508;-63
2021/07/09 07:31:03;;;;;;;5.57;4.70;;;19.20;99.90;;;;;;5093241;28;20463;-64
2021/07/09 07:33:30;;;;;;;7.40;5.03;;;19.30;99.90;;;;;;5114675;28;20463;-63
2021/07/09 07:36:13;;;;;;;5.00;4.23;;;19.40;99.90;;;;;;5098079;28;20518;-63
2021/07/09 07:38:42;;;;;;;4.70;4.20;;;19.30;99.90;;;;;;5119311;28;20424;-63
2021/07/09 07:41:10;;;;;;;4.57;3.90;;;19.40;99.90;;;;;;5117663;28;20476;-63
2021/07/09 07:43:37;;;;;;;4.87;4.47;;;19.30;99.90;;;;;;5101800;28;20599;-65
2021/07/09 07:46:04;;;;;;;5.80;4.40;;;19.20;99.90;;;;;;5100684;28;20424;-64
2021/07/09 07:48:32;;;;;;;5.00;4.50;;;19.30;99.90;;;;;;5100764;28;20418;-62
2021/07/09 07:50:59;;;;;;;9.73;4.23;;;19.20;99.90;;;;;;5111426;28;20452;-63
2021/07/09 07:53:26;;;;;;;8.17;5.60;;;19.20;99.90;;;;;;5100110;28;20435;-62
2021/07/09 07:55:53;;;;;;;8.33;5.43;;;19.30;99.90;;;;;;5100072;28;20417;-63
2021/07/09 07:58:20;;;;;;;5.77;5.23;;;19.40;99.90;;;;;;5112439;28;20475;-63
2021/07/09 08:00:47;;;;;;;8.37;6.00;;;19.50;99.90;;;;;;5100330;28;20830;-64
2021/07/09 08:03:14;;;;;;;7.50;6.67;;;19.50;99.90;;;;;;5099697;28;20449;-61
2021/07/09 08:05:41;;;;;;;6.67;5.80;;;19.60;99.90;;;;;;5099788;28;20416;-63
2021/07/09 08:08:08;;;;;;;7.13;6.30;;;19.40;99.90;;;;;;5100007;28;20463;-64
2021/07/09 08:10:35;;;;;;;11.73;7.30;;;19.40;99.90;;;;;;5102330;28;20451;-64
2021/07/09 08:13:03;;;;;;;7.17;5.93;;;19.50;99.90;;;;;;5103762;28;20816;-64
2021/07/09 08:15:30;;;;;;;5.57;5.00;;;19.40;99.90;;;;;;5111521;28;20465;-62
2021/07/09 08:17:57;;;;;;;6.73;6.03;;;19.40;99.90;;;;;;5119006;28;20613;-63
2021/07/09 08:20:24;;;;;;;7.53;6.27;;;19.40;99.90;;;;;;5109661;28;20698;-65
2021/07/09 08:22:51;;;;;;;10.07;6.77;;;19.60;99.90;;;;;;5103339;28;20420;-61
2021/07/09 08:25:18;;;;;;;10.70;7.20;;;19.60;99.90;;;;;;5103379;28;20427;-63
2021/07/09 08:27:45;;;;;;;10.93;7.90;;;19.60;99.90;;;;;;5103404;28;20471;-62
2021/07/09 08:30:13;;;;;;;7.60;6.60;;;19.90;99.90;;;;;;5100200;28;20589;-63
2021/07/09 08:32:40;;;;;;;9.23;8.20;;;19.80;99.90;;;;;;5093032;28;20789;-63
2021/07/09 08:35:08;;;;;;;8.83;7.93;;;19.90;99.90;;;;;;5103325;28;20417;-63
2021/07/09 08:37:51;;;;;;;7.70;6.63;;;19.90;99.90;;;;;;5103801;28;20464;-62
2021/07/09 08:40:18;;;;;;;8.40;6.40;;;19.90;99.90;;;;;;5109697;28;20672;-61
2021/07/09 08:42:47;;;;;;;7.87;5.93;;;19.90;99.90;;;;;;5116203;28;20760;-62
2021/07/09 08:45:14;;;;;;;10.73;6.67;;;20.20;99.90;;;;;;5115177;28;20420;-62
2021/07/09 08:47:42;;;;;;;10.87;6.47;;;19.90;99.90;;;;;;5103312;28;20621;-62
2021/07/09 08:50:11;;;;;;;6.37;5.73;;;20.00;99.90;;;;;;5098282;28;20658;-62
2021/07/09 08:52:40;;;;;;;7.83;6.33;;;19.80;99.90;;;;;;5108065;28;20456;-63
2021/07/09 08:55:13;;;;;;;11.80;10.17;;;20.00;99.90;;;;;;5105191;28;20431;-62
2021/07/09 08:57:41;;;;;;;11.23;9.03;;;20.10;99.90;;;;;;5084118;28;20440;-62
2021/07/09 09:00:26;;;;;;;7.23;5.83;;;20.10;99.90;;;;;;5111943;28;20463;-62
2021/07/09 09:02:54;;;;;;;12.77;6.87;;;19.90;99.90;;;;;;5110720;28;20430;-61
2021/07/09 09:05:23;;;;;;;6.57;5.93;;;19.90;99.90;;;;;;5107409;28;20437;-61
2021/07/09 09:08:01;;;;;;;13.70;6.63;;;19.90;99.90;;;;;;5111480;28;20465;-61
2021/07/09 09:10:39;;;;;;;8.80;7.53;;;20.00;99.90;;;;;;5094941;28;20467;-62
2021/07/09 09:13:11;;;;;;;10.13;7.13;;;20.20;99.90;;;;;;5123474;28;20415;-63
2021/07/09 09:15:41;;;;;;;6.87;6.27;;;19.90;99.90;;;;;;5095451;28;20480;-63
2021/07/09 09:18:32;;;;;;;7.87;6.57;;;19.60;99.90;;;;;;5110198;28;20417;-63
2021/07/09 09:21:09;;;;;;;11.30;8.70;;;19.30;99.90;;;;;;5117179;28;20508;-62
2021/07/09 09:23:49;;;;;;;10.20;8.13;;;19.50;99.90;;;;;;5105462;28;20449;-62
2021/07/09 09:26:41;;;;;;;11.90;9.27;;;19.80;99.90;;;;;;5116364;28;20441;-63
2021/07/09 09:29:24;;;;;;;9.83;8.47;;;19.90;99.90;;;;;;5091243;28;21183;-62
2021/07/09 09:32:00;;;;;;;10.70;7.57;;;20.10;99.90;;;;;;5112407;28;20407;-61
2021/07/09 09:34:49;;;;;;;8.57;7.47;;;19.80;99.90;;;;;;5113259;28;20445;-60
2021/07/09 09:37:28;;;;;;;7.10;6.50;;;19.80;99.90;;;;;;5117669;28;20585;-60
2021/07/09 09:39:55;;;;;;;7.53;6.33;;;19.70;99.90;;;;;;5109704;28;20467;-62
2021/07/09 09:42:26;;;;;;;8.30;6.57;;;19.40;99.90;;;;;;5119074;28;20737;-62
2021/07/09 09:45:00;;;;;;;12.53;8.20;;;19.30;99.90;;;;;;5119790;28;20464;-62
2021/07/09 09:47:31;;;;;;;10.80;9.17;;;19.30;99.90;;;;;;5119972;28;20437;-60
2021/07/09 09:49:59;;;;;;;8.47;7.00;;;19.40;99.90;;;;;;5115810;28;20412;-61
2021/07/09 09:52:37;;;;;;;7.50;6.57;;;19.40;99.90;;;;;;5121173;28;20411;-61
2021/07/09 09:55:12;;;;;;;7.37;6.67;;;19.30;99.90;;;;;;5113903;28;20454;-61
2021/07/09 09:57:41;;;;;;;10.33;6.80;;;19.20;99.90;;;;;;5114322;28;20440;-62
2021/07/09 10:00:10;;;;;;;14.20;6.70;;;19.10;99.90;;;;;;5119176;28;20795;-61
2021/07/09 10:02:44;;;;;;;9.00;6.43;;;19.00;99.90;;;;;;5117907;28;20448;-61
2021/07/09 10:05:11;;;;;;;12.33;10.33;;;19.00;99.90;;;;;;5120028;28;20785;-61
2021/07/09 10:07:38;;;;;;;12.30;10.63;;;19.20;99.90;;;;;;5116937;28;20786;-62
2021/07/09 10:10:06;;;;;;;13.37;8.60;;;19.30;99.90;;;;;;5113024;28;20451;-62
2021/07/09 10:12:55;;;;;;;6.80;6.10;;;19.30;99.90;;;;;;5097133;28;20442;-61
2021/07/09 10:15:25;;;;;;;13.53;9.17;;;19.40;99.90;;;;;;5101621;28;20416;-62
2021/07/09 10:17:54;;;;;;;10.30;7.80;;;19.50;99.90;;;;;;5093702;28;20469;-62
2021/07/09 10:20:22;;;;;;;12.50;8.90;;;19.80;99.90;;;;;;5102513;28;20857;-61
2021/07/09 10:22:50;;;;;;;12.83;9.67;;;19.90;99.90;;;;;;5110858;28;20414;-60
2021/07/09 10:25:19;;;;;;;13.47;10.00;;;20.50;99.90;;;;;;5107636;28;20421;-61
2021/07/09 10:27:47;;;;;;;10.50;7.37;;;21.10;99.90;;;;;;5095825;28;20495;-61
2021/07/09 10:30:14;;;;;;;7.20;6.50;;;21.50;99.90;;;;;;5110149;28;20413;-61
2021/07/09 10:32:48;;;;;;;6.67;5.57;;;21.70;99.90;;;;;;5120946;28;20555;-61
2021/07/09 10:35:35;;;;;;;7.97;7.00;;;21.60;99.90;;;;;;5108875;28;20610;-61
2021/07/09 10:38:10;;;;;;;6.10;4.80;;;21.50;99.90;;;;;;5088615;28;20723;-62
2021/07/09 10:40:38;;;;;;;7.30;5.20;;;21.40;99.90;;;;;;5100686;28;20700;-61
2021/07/09 10:43:10;;;;;;;5.43;4.93;;;21.40;99.90;;;;;;5101662;28;20514;-61
2021/07/09 10:45:39;;;;;;;4.97;4.53;;;21.40;99.90;;;;;;5100710;28;20420;-61
2021/07/09 10:48:08;;;;;;;4.90;4.40;;;21.40;99.90;;;;;;5085808;28;20603;-61
2021/07/09 10:50:44;;;;;;;8.03;5.27;;;21.50;99.90;;;;;;5108232;28;20422;-62
2021/07/09 10:53:11;;;;;;;6.07;5.57;;;21.60;99.90;;;;;;5100230;28;20413;-61
2021/07/09 10:55:43;;;;;;;6.77;4.77;;;22.00;99.90;;;;;;5113201;28;20512;-61
2021/07/09 10:58:10;;;;;;;5.67;5.00;;;22.40;99.90;;;;;;5108169;28;20474;-62
2021/07/09 11:00:47;;;;;;;5.50;4.93;;;22.50;99.90;;;;;;5100344;28;20458;-61
2021/07/09 11:03:35;;;;;;;6.60;5.93;;;22.60;99.90;;;;;;5100096;28;20624;-62
2021/07/09 11:06:07;;;;;;;7.33;4.90;;;22.90;99.90;;;;;;5096301;28;20403;-61
2021/07/09 11:08:44;;;;;;;5.50;3.80;;;23.20;99.90;;;;;;5100423;28;20459;-62
2021/07/09 11:11:17;;;;;;;4.93;4.10;;;23.80;99.90;;;;;;5091846;28;20480;-63
2021/07/09 11:13:52;;;;;;;5.23;4.77;;;24.60;99.90;;;;;;5100323;28;20416;-63
2021/07/09 11:16:24;;;;;;;5.20;4.20;;;25.00;99.90;;;;;;5098949;28;20459;-62
2021/07/09 11:19:04;;;;;;;5.20;3.57;;;25.20;99.90;;;;;;5100186;28;20438;-62
2021/07/09 11:21:36;;;;;;;5.20;4.80;;;25.50;99.90;;;;;;5088587;28;20480;-61
2021/07/09 11:24:21;;;;;;;3.93;3.63;;;26.10;99.90;;;;;;5099566;28;20515;-61
2021/07/09 11:26:59;;;;;;;4.47;3.90;;;26.00;99.90;;;;;;5089335;28;20406;-61
2021/07/09 11:29:41;;;;;;;4.47;4.07;;;25.40;99.90;;;;;;5099907;28;20438;-61
2021/07/09 11:32:15;;;;;;;5.70;4.17;;;25.40;99.90;;;;;;5100220;28;20649;-61
2021/07/09 11:34:51;;;;;;;5.10;4.60;;;25.20;99.90;;;;;;5099699;28;20439;-61
2021/07/09 11:37:26;;;;;;;5.37;4.83;;;25.10;99.90;;;;;;5099894;28;20406;-61
2021/07/09 11:39:58;;;;;;;4.80;4.37;;;25.70;99.90;;;;;;5099683;28;20740;-61
2021/07/09 11:42:30;;;;;;;3.93;3.53;;;26.40;99.90;;;;;;5100142;28;20446;-62
2021/07/09 11:45:00;;;;;;;5.30;3.83;;;26.40;99.90;;;;;;5098881;28;20491;-61
2021/07/09 11:47:32;;;;;;;4.97;4.57;;;25.90;99.90;;;;;;5099570;28;20447;-60
2021/07/09 11:50:05;;;;;;;5.20;4.53;;;25.70;99.90;;;;;;5099843;28;20449;-60
2021/07/09 11:52:37;;;;;;;5.37;4.23;;;25.20;99.90;;;;;;5099282;28;20493;-61
2021/07/09 11:55:08;;;;;;;4.67;4.27;;;24.90;99.90;;;;;;5105548;28;20401;-61
2021/07/09 11:57:37;;;;;;;6.10;4.00;;;24.70;99.90;;;;;;5105000;28;20805;-61
2021/07/09 12:00:17;;;;;;;8.87;3.90;;;24.50;99.90;;;;;;5099539;28;20439;-60
2021/07/09 12:02:46;;;;;;;4.83;4.13;;;24.70;99.90;;;;;;5099619;28;20454;-62
2021/07/09 12:05:23;;;;;;;4.97;4.57;;;25.20;99.90;;;;;;5099399;28;20719;-60
2021/07/09 12:07:55;;;;;;;4.90;4.40;;;26.10;99.90;;;;;;5099134;28;20455;-61
2021/07/09 12:10:25;;;;;;;4.00;3.70;;;27.00;99.90;;;;;;5099481;28;20524;-61
2021/07/09 12:12:58;;;;;;;4.70;4.27;;;26.70;99.90;;;;;;5099170;28;20406;-61
2021/07/09 12:15:30;;;;;;;4.00;3.27;;;26.60;99.90;;;;;;5099752;28;20486;-61
2021/07/09 12:18:03;;;;;;;6.70;4.27;;;26.40;99.90;;;;;;5099898;28;20496;-61
2021/07/09 12:20:35;;;;;;;3.90;3.60;;;26.10;99.90;;;;;;5099195;28;20672;-62
2021/07/09 12:23:14;;;;;;;4.70;4.30;;;26.00;99.90;;;;;;5100090;28;20652;-61
2021/07/09 12:25:47;;;;;;;4.50;4.10;;;25.90;99.90;;;;;;5099736;28;20410;-62
2021/07/09 12:28:20;;;;;;;5.07;4.67;;;25.40;99.90;;;;;;5099521;28;20472;-60
2021/07/09 12:30:49;;;;;;;6.43;4.73;;;24.90;99.90;;;;;;5099768;28;20459;-61
2021/07/09 12:33:25;;;;;;;6.30;3.53;;;24.90;99.90;;;;;;5099427;28;20450;-61
2021/07/09 12:35:58;;;;;;;5.50;4.87;;;25.00;99.90;;;;;;5100102;28;20480;-60
2021/07/09 12:38:25;;;;;;;3.77;3.43;;;25.00;99.90;;;;;;5099631;28;20503;-63
2021/07/09 12:40:53;;;;;;;6.17;4.70;;;25.10;99.90;;;;;;5099512;28;20482;-61
2021/07/09 12:43:49;;;;;;;5.77;5.13;;;25.20;99.90;;;;;;5099677;28;20413;-62
2021/07/09 12:46:18;;;;;;;5.83;4.57;;;25.80;99.90;;;;;;5099493;28;20431;-62
2021/07/09 12:48:54;;;;;;;6.00;5.40;;;26.20;99.90;;;;;;5099704;28;20451;-64
2021/07/09 12:51:21;;;;;;;6.00;4.77;;;26.50;99.90;;;;;;5099273;28;20703;-61
2021/07/09 12:53:51;;;;;;;5.53;4.90;;;26.90;99.90;;;;;;5099553;28;20440;-62
2021/07/09 12:56:20;;;;;;;5.10;4.70;;;27.10;99.90;;;;;;5100714;28;20462;-61
2021/07/09 12:58:49;;;;;;;5.13;4.50;;;27.00;99.90;;;;;;5093564;28;20447;-61